Agawam, MA

3:13 PM EDT on March 26, 2015 (GMT -0400)
Sheri Lane | Change Station
CLOSE
Current Station
Personal Weather Station
Location: Agawam, MA
Elevation: 177 ft
Nearby Weather Stations

Elev 177 ft 42.08 °N, 72.64 °W | Updated 49 seconds ago

Rain
Rain
45.1 °F
Feels Like 43 °F
N
3.8
Wind Variable Wind from ESE
Gusts 3.8 mph

Today
High -- | Low -- °F
--% Chance of Precip.
Yesterday
High -- | Low -- °F
Precip. -- in
6:43 AM 7:09 PM
Waxing Crescent, 45% visible
Pressure 29.75 in
Visibility 3.0 miles
Clouds Overcast 500 ft
Windchill 43 °F
Dew Point 45 °F
Humidity 98%
Rainfall 0.04 in
Snow Depth Not available.
UV 2 out of 12
Pollen 4.60 out of 12
Air Quality Not available.
Flu Activity Not available.
METAR KBAF 261853Z 18003KT 3SM -RA BR OVC005 07/06 A2974 RMK AO2 SLP074 P0000 T00720061

More Conditions Fewer Conditions

Pressure 29.75 in
Visibility 3.0 miles
Clouds Overcast 500 ft
Windchill 43 °F
Dew Point 45 °F
Humidity 98%
Rainfall 0.04 in
Snow Depth Not available.
UV 2 out of 12
Pollen 4.60 out of 12
Air Quality Not available.
Flu Activity Not available.
METAR KBAF 261853Z 18003KT 3SM -RA BR OVC005 07/06 A2974 RMK AO2 SLP074 P0000 T00720061

More Conditions Fewer Conditions

10-Day Weather Forecast

Almanac

Astronomy

Mar. 26, 2015 Rise Set
Actual Time
Civil Twilight
Nautical Twilight
Astronomical Twilight
Moon
Length of Visible Light
Length of Day
Tomorrow will be .
, % of the Moon is Illuminated

Today's Extremes

State Highs State Lows

Community

WunderPhotos

Upload Photos

1,808,606 photos uploaded!

WunderBlogs® & News

Nearby

Air Quality

  Air Quality AQ Index Pollutant
Not available.

Snow Depth

Station Depth Elevation

Earthquake Activity

City Distance Mag. Time & Date
Minimum magnitude displayed is 2.5.

Coastal Water Temperatures

Place Temperature

Stations

Nearby Weather Stations

Station Location Temp. Windchill Dew Point Humidity Wind Precip. Elev Updated Type